x

Orange Beach - 44 Nm Se Of Mobile, Al (42012) Wave Buoy

8:50am - Tue 28th Apr 2015 All times are CDT. -5 hours from GMT.

  • Sig Wave height 4.3ft
  • Swell Direction
  • Peak Period 6s
  • Average Period 5s
  • Wind
    13mph, 16mph gusts
  • Sea Temp 73°f
  • Air Temp 70°f
  • Sea Pressure 1007.4mb
  • Orange Beach - 44 Nm Se Of Mobile, Al
  • Orange Beach - 44 Nm Se Of Mobile, Al

More Historic Weather Station data

Upgrade to MSW Pro to gain access to the past 30 days of data for over 8000 Wavebouys and Weather Stations around the globe.

Join Pro

Comparision Forecast

View Surf forecast
   
Tue 04/28 8:50am 4.5ft 6s 5s 13 16 mph 1007.4mb 73f 70f
7:50am 4.5ft 7s 5s 13 16 mph 1008.1mb 73f 71f
6:50am 5ft 7s 5s 16 20 mph 1007.3mb 73f 70f
5:50am 5ft 6s 5s 20 25 mph 1006.1mb 73f 70f
4:50am 5ft 7s 5s 22 25 mph 1005.3mb 73f 69f
3:50am 4.5ft 7s 5s 25 29 mph 1003mb 73f 73f
2:50am 3.5ft 6s 5s 20 25 mph 1006.2mb 73f 71f
1:50am 3.5ft 6s 5s 11 16 mph 1008.2mb 73f 68f
12:50am 3.5ft 5s 5s 9 11 mph 1009.2mb 73f 68f
Mon 04/27 11:50pm 3.5ft 6s 4s 7 9 mph 1009.7mb 73f 68f
10:50pm 3.5ft 5s 4s 11 13 mph 1008.5mb 73f 67f
9:50pm 3.5ft 4s 4s 11 16 mph 1008.4mb 73f 71f
8:50pm 3ft 4s 4s 20 25 mph 1007.2mb 73f 72f
7:50pm 3ft 4s 4s 16 18 mph 1007.2mb 74f 71f
6:50pm 2.5ft 4s 4s 16 20 mph 1007mb 74f 69f
5:50pm 3ft 4s 4s 13 18 mph 1005.1mb 74f 74f
4:50pm 3ft 4s 4s 27 34 mph 1003.1mb 74f 71f
3:50pm 3.5ft 4s 4s 22 27 mph 1006.7mb 74f 68f
2:50pm 3.5ft 4s 4s 29 34 mph 1011.2mb 74f 66f
1:50pm 3.5ft 5s 4s 25 29 mph 1009.9mb 75f 69f
12:50pm 3.5ft 5s 4s 16 18 mph 1009.6mb 75f 72f
11:50am 3.5ft 5s 4s 22 27 mph 1008.4mb 75f 73f
10:50am 3.5ft 4s 4s 20 27 mph 1008.2mb 75f 72f
9:50am 3.5ft 4s 4s 25 27 mph 1007.4mb 75f 73f
8:50am 2.5ft 6s 4s 22 27 mph 1007.8mb 75f 73f
7:50am 2.5ft 6s 4s 18 20 mph 1007.3mb 75f 74f
6:50am 2.5ft 6s 5s 13 18 mph 1006.9mb 75f 75f
5:50am 2.5ft 6s 5s 4
mph
1006.8mb 75f 75f
4:50am 2.5ft 6s 5s 4
mph
1006mb 75f 75f
3:50am 2ft 6s 5s 4
mph
1005.6mb 75f 75f
2:50am 2ft 5s 5s 2 4 mph 1005.2mb 75f 75f
1:50am 2.5ft 6s 5s 2 4 mph 1005.6mb 75f 75f
12:50am 2.5ft 6s 5s 7
mph
1006.4mb 75f 75f
Sun 04/26 11:50pm 2.5ft 6s 5s 4
mph
1005.6mb 75f 75f
10:50pm 2.5ft 6s 5s 4 7 mph 1006.6mb 75f 75f
9:50pm 2.5ft 7s 5s 2 4 mph 1005.8mb 75f 75f
8:50pm 3ft 7s 5s 4 7 mph 1006.3mb 75f 75f
7:50pm 2.5ft 7s 5s 2 4 mph 1005.4mb 75f 75f
6:50pm 3ft 7s 5s 11 13 mph 1005.8mb 76f 76f
5:50pm 3ft 7s 5s 7 9 mph 1005.5mb 76f 76f
4:50pm 2.5ft 7s 5s 9 11 mph 1006.2mb 76f 76f
3:50pm 3ft 8s 6s 9 11 mph 1006.2mb 76f 76f
2:50pm 3ft 8s 5s 9 11 mph 1007mb 76f 76f
1:50pm 3ft 7s 5s 9
mph
1007.4mb 77f 76f
12:50pm 3ft 8s 5s 4 7 mph 1007.1mb 76f 76f
11:50am 3ft 8s 5s 4 7 mph 1007.6mb 76f 75f
10:50am 3ft 8s 5s 2
mph
1008.2mb 75f 75f
9:50am 3ft 8s 5s 4
mph
1007.7mb 75f 74f
8:50am 3ft 8s 5s 2 4 mph 1007.6mb 74f 74f
7:50am 3ft 8s 5s 4
mph
1007.5mb 74f 73f
6:50am 3.5ft 5s 5s 4 7 mph 1007.3mb 74f 74f
5:50am 3.5ft 8s 5s 4 7 mph 1006.6mb 74f 74f
4:50am 3.5ft 5s 5s 4
mph
1006.2mb 74f 74f
3:50am 3.5ft 5s 5s 7
mph
1006.1mb 74f 74f
2:50am 3.5ft 6s 5s 4
mph
1006.1mb 74f 74f
1:50am 3.5ft 5s 5s 7
mph
1006.3mb 74f 74f
12:50am 3.5ft 6s 5s 7
mph
1006.7mb 74f 74f
Sat 04/25 11:50pm 3.5ft 6s 5s 7
mph
1006.8mb 74f 75f
10:50pm 3.5ft 7s 5s 9
mph
1006.7mb 74f 75f
9:50pm 3.5ft 6s 5s 4
mph
1006.6mb 74f 75f
8:50pm 3ft 7s 5s 2
mph
1005.8mb 74f 75f
7:50pm 3ft 7s 5s 11 13 mph 1005.1mb 74f 75f
6:50pm 3.5ft 5s 5s 13 18 mph 1004.7mb 74f 74f
5:50pm 4.5ft 5s 5s 4 9 mph 1006.3mb 74f 73f
4:50pm 4.5ft 6s 4s 25 31 mph 1007.5mb 74f 73f
3:50pm 3.5ft 6s 5s 18 22 mph 1008.3mb 75f 77f
2:50pm 3.5ft 6s 5s  -  2 mph 1007.8mb 75f 76f
1:50pm 3.5ft 6s 5s 4 7 mph 1008.3mb 75f 76f
12:50pm 3ft 6s 4s 11 13 mph 1008.1mb 74f 76f
11:50am 3ft 6s 4s 11 13 mph 1008.7mb 74f 76f
10:50am 3ft 6s 4s 13 18 mph 1008.6mb 74f 76f
9:50am 3ft 5s 4s 13 16 mph 1009.4mb 74f 76f
8:50am 3ft 6s 5s 11
mph
1009.8mb 74f 75f
7:50am 3.5ft 5s 4s 9 11 mph 1009.9mb 74f 75f
6:50am 3.5ft 5s 5s 13 16 mph 1009.8mb 74f 75f
5:50am 3ft 6s 4s 13
mph
1009.8mb 74f 75f
4:50am 2.5ft 5s 4s 9
mph
1009.5mb 74f 75f
3:50am 2.5ft 5s 4s 11
mph
1008.6mb 74f 75f
2:50am 2.5ft 5s 4s 9 11 mph 1008.8mb 74f 75f
1:50am 3.5ft 5s 4s 13 16 mph 1009.1mb 74f 75f
12:50am 3.5ft 5s 4s 11 16 mph 1009.6mb 73f 75f
Fri 04/24 11:50pm 4ft 5s 4s 11 13 mph 1010.7mb 73f 75f
10:50pm 3.5ft 4s 4s 9 11 mph 1011.1mb 73f 75f
9:50pm 2.5ft 4s 4s 11 16 mph 1011.5mb 73f 75f
8:50pm 2.5ft 6s 4s 13 16 mph 1011.4mb 73f 74f
7:50pm 2.5ft 6s 4s 13 16 mph 1011.7mb 74f 74f
6:50pm 2.5ft 6s 4s 11 13 mph 1012.5mb 74f 74f
5:50pm 2.5ft 4s 4s 11
mph
1013.2mb 74f 74f
4:50pm 2.5ft 4s 4s 18 20 mph 1012.1mb 74f 74f
3:50pm 2.5ft 7s 4s 20 22 mph 1011.8mb 74f 73f
2:50pm 2.5ft 4s 4s 16 18 mph 1013.3mb 74f 74f